sensor_id;sensor_type;location;lat;lon;timestamp;pressure;altitude;pressure_sealevel;temperature;humidity
76762;BME280;65705;51.032;13.790;2023-05-14T00:01:36;100717.09;;;13.75;71.16
76762;BME280;65705;51.032;13.790;2023-05-14T00:04:02;100717.09;;;13.75;70.85
76762;BME280;65705;51.032;13.790;2023-05-14T00:06:28;100707.53;;;13.74;71.27
76762;BME280;65705;51.032;13.790;2023-05-14T00:08:54;100709.69;;;13.70;71.28
76762;BME280;65705;51.032;13.790;2023-05-14T00:11:20;100711.66;;;13.68;71.49
76762;BME280;65705;51.032;13.790;2023-05-14T00:13:45;100704.25;;;13.64;71.68
76762;BME280;65705;51.032;13.790;2023-05-14T00:16:11;100704.75;;;13.67;71.77
76762;BME280;65705;51.032;13.790;2023-05-14T00:18:37;100700.25;;;13.68;71.70
76762;BME280;65705;51.032;13.790;2023-05-14T00:21:03;100699.47;;;13.67;71.47
76762;BME280;65705;51.032;13.790;2023-05-14T00:23:28;100694.69;;;13.71;71.38
76762;BME280;65705;51.032;13.790;2023-05-14T00:25:54;100696.34;;;13.64;71.55
76762;BME280;65705;51.032;13.790;2023-05-14T00:28:20;100687.25;;;13.66;71.57
76762;BME280;65705;51.032;13.790;2023-05-14T00:30:47;100696.16;;;13.73;71.31
76762;BME280;65705;51.032;13.790;2023-05-14T00:33:14;100683.47;;;13.69;71.47
76762;BME280;65705;51.032;13.790;2023-05-14T00:35:40;100685.94;;;13.70;71.53
76762;BME280;65705;51.032;13.790;2023-05-14T00:38:06;100681.66;;;13.61;71.71
76762;BME280;65705;51.032;13.790;2023-05-14T00:40:31;100675.72;;;13.59;71.89
76762;BME280;65705;51.032;13.790;2023-05-14T00:42:58;100677.22;;;13.62;71.88
76762;BME280;65705;51.032;13.790;2023-05-14T00:45:24;100677.69;;;13.65;71.82
76762;BME280;65705;51.032;13.790;2023-05-14T00:47:51;100680.84;;;13.69;71.51
76762;BME280;65705;51.032;13.790;2023-05-14T00:50:17;100674.25;;;13.73;71.37
76762;BME280;65705;51.032;13.790;2023-05-14T00:52:43;100672.91;;;13.61;71.87
76762;BME280;65705;51.032;13.790;2023-05-14T00:55:12;100672.41;;;13.57;72.08
76762;BME280;65705;51.032;13.790;2023-05-14T00:57:41;100679.47;;;13.57;72.12
76762;BME280;65705;51.032;13.790;2023-05-14T01:00:07;100677.38;;;13.60;71.92
76762;BME280;65705;51.032;13.790;2023-05-14T01:02:33;100678.00;;;13.62;71.87
76762;BME280;65705;51.032;13.790;2023-05-14T01:04:59;100677.03;;;13.63;71.87
76762;BME280;65705;51.032;13.790;2023-05-14T01:08:26;100673.06;;;13.59;72.05
76762;BME280;65705;51.032;13.790;2023-05-14T01:10:51;100680.81;;;13.61;72.26
76762;BME280;65705;51.032;13.790;2023-05-14T01:13:26;100674.06;;;13.58;72.49
76762;BME280;65705;51.032;13.790;2023-05-14T01:15:57;100670.59;;;13.58;72.50
76762;BME280;65705;51.032;13.790;2023-05-14T01:18:25;100667.97;;;13.58;72.58
76762;BME280;65705;51.032;13.790;2023-05-14T01:20:53;100669.78;;;13.57;72.46
76762;BME280;65705;51.032;13.790;2023-05-14T01:23:19;100672.22;;;13.59;72.41
76762;BME280;65705;51.032;13.790;2023-05-14T01:25:45;100664.66;;;13.56;72.38
76762;BME280;65705;51.032;13.790;2023-05-14T01:28:17;100662.38;;;13.53;72.49
76762;BME280;65705;51.032;13.790;2023-05-14T01:30:48;100661.53;;;13.52;72.52
76762;BME280;65705;51.032;13.790;2023-05-14T01:33:17;100667.47;;;13.54;72.53
76762;BME280;65705;51.032;13.790;2023-05-14T01:35:44;100662.53;;;13.51;72.63
76762;BME280;65705;51.032;13.790;2023-05-14T01:38:12;100668.13;;;13.56;72.58
76762;BME280;65705;51.032;13.790;2023-05-14T01:40:38;100672.56;;;13.56;72.41
76762;BME280;65705;51.032;13.790;2023-05-14T01:43:06;100670.09;;;13.54;72.72
76762;BME280;65705;51.032;13.790;2023-05-14T01:45:34;100665.16;;;13.59;72.68
76762;BME280;65705;51.032;13.790;2023-05-14T01:48:00;100669.78;;;13.57;72.66
76762;BME280;65705;51.032;13.790;2023-05-14T01:50:26;100668.31;;;13.55;72.59
76762;BME280;65705;51.032;13.790;2023-05-14T01:52:52;100665.16;;;13.51;72.67
76762;BME280;65705;51.032;13.790;2023-05-14T01:55:21;100673.09;;;13.51;72.53
76762;BME280;65705;51.032;13.790;2023-05-14T01:57:49;100664.47;;;13.41;72.84
76762;BME280;65705;51.032;13.790;2023-05-14T02:00:15;100664.63;;;13.32;72.94
76762;BME280;65705;51.032;13.790;2023-05-14T02:02:41;100667.59;;;13.21;73.27
76762;BME280;65705;51.032;13.790;2023-05-14T02:05:10;100667.72;;;13.11;73.95
76762;BME280;65705;51.032;13.790;2023-05-14T02:07:36;100668.81;;;13.01;74.54
76762;BME280;65705;51.032;13.790;2023-05-14T02:10:02;100661.88;;;13.00;74.61
76762;BME280;65705;51.032;13.790;2023-05-14T02:12:28;100665.84;;;12.96;74.71
76762;BME280;65705;51.032;13.790;2023-05-14T02:14:54;100662.38;;;12.95;75.02
76762;BME280;65705;51.032;13.790;2023-05-14T02:17:20;100663.03;;;12.89;75.12
76762;BME280;65705;51.032;13.790;2023-05-14T02:19:46;100662.69;;;12.84;75.54
76762;BME280;65705;51.032;13.790;2023-05-14T02:22:11;100656.75;;;12.82;75.47
76762;BME280;65705;51.032;13.790;2023-05-14T02:24:37;100656.91;;;12.81;75.61
76762;BME280;65705;51.032;13.790;2023-05-14T02:27:03;100656.91;;;12.81;75.39
76762;BME280;65705;51.032;13.790;2023-05-14T02:29:29;100649.16;;;12.79;75.39
76762;BME280;65705;51.032;13.790;2023-05-14T02:31:55;100645.03;;;12.77;75.27
76762;BME280;65705;51.032;13.790;2023-05-14T02:34:22;100648.47;;;12.69;75.50
76762;BME280;65705;51.032;13.790;2023-05-14T02:36:49;100644.34;;;12.66;75.43
76762;BME280;65705;51.032;13.790;2023-05-14T02:39:15;100650.59;;;12.65;75.39
76762;BME280;65705;51.032;13.790;2023-05-14T02:41:44;100647.78;;;12.59;75.39
76762;BME280;65705;51.032;13.790;2023-05-14T02:44:10;100650.88;;;12.54;75.53
76762;BME280;65705;51.032;13.790;2023-05-14T02:46:35;100646.59;;;12.53;75.76
76762;BME280;65705;51.032;13.790;2023-05-14T02:49:01;100647.75;;;12.51;75.56
76762;BME280;65705;51.032;13.790;2023-05-14T02:51:27;100649.44;;;12.60;75.05
76762;BME280;65705;51.032;13.790;2023-05-14T02:53:53;100645.63;;;12.54;75.13
76762;BME280;65705;51.032;13.790;2023-05-14T02:56:19;100643.13;;;12.53;74.79
76762;BME280;65705;51.032;13.790;2023-05-14T02:58:45;100646.09;;;12.50;75.03
76762;BME280;65705;51.032;13.790;2023-05-14T03:01:11;100642.44;;;12.43;75.28
76762;BME280;65705;51.032;13.790;2023-05-14T03:03:37;100643.44;;;12.42;75.60
76762;BME280;65705;51.032;13.790;2023-05-14T03:06:03;100648.69;;;12.42;75.62
76762;BME280;65705;51.032;13.790;2023-05-14T03:08:29;100646.34;;;12.39;75.73
76762;BME280;65705;51.032;13.790;2023-05-14T03:10:55;100642.25;;;12.36;75.65
76762;BME280;65705;51.032;13.790;2023-05-14T03:13:21;100643.19;;;12.27;76.15
76762;BME280;65705;51.032;13.790;2023-05-14T03:15:46;100644.16;;;12.26;75.92
76762;BME280;65705;51.032;13.790;2023-05-14T03:18:13;100652.72;;;12.28;75.97
76762;BME280;65705;51.032;13.790;2023-05-14T03:20:39;100647.28;;;12.30;75.91
76762;BME280;65705;51.032;13.790;2023-05-14T03:23:05;100647.78;;;12.25;76.03
76762;BME280;65705;51.032;13.790;2023-05-14T03:25:31;100645.16;;;12.25;76.00
76762;BME280;65705;51.032;13.790;2023-05-14T03:27:58;100642.69;;;12.24;75.86
76762;BME280;65705;51.032;13.790;2023-05-14T03:30:24;100638.59;;;12.29;75.65
76762;BME280;65705;51.032;13.790;2023-05-14T03:32:50;100632.50;;;12.29;75.32
76762;BME280;65705;51.032;13.790;2023-05-14T03:35:16;100639.09;;;12.33;75.02
76762;BME280;65705;51.032;13.790;2023-05-14T03:37:42;100631.16;;;12.25;75.37
76762;BME280;65705;51.032;13.790;2023-05-14T03:40:08;100625.88;;;12.25;75.19
76762;BME280;65705;51.032;13.790;2023-05-14T03:42:35;100629.69;;;12.22;74.95
76762;BME280;65705;51.032;13.790;2023-05-14T03:45:01;100636.91;;;12.20;74.96
76762;BME280;65705;51.032;13.790;2023-05-14T03:47:27;100632.25;;;12.14;75.24
76762;BME280;65705;51.032;13.790;2023-05-14T03:49:55;100628.78;;;12.14;75.47
76762;BME280;65705;51.032;13.790;2023-05-14T03:52:21;100634.03;;;12.14;75.41
76762;BME280;65705;51.032;13.790;2023-05-14T03:54:46;100632.72;;;12.10;75.47
76762;BME280;65705;51.032;13.790;2023-05-14T03:57:13;100632.06;;;12.08;75.39
76762;BME280;65705;51.032;13.790;2023-05-14T03:59:39;100633.09;;;12.15;75.47
76762;BME280;65705;51.032;13.790;2023-05-14T04:02:06;100631.41;;;12.14;75.61
76762;BME280;65705;51.032;13.790;2023-05-14T04:04:31;100629.50;;;12.24;75.05
76762;BME280;65705;51.032;13.790;2023-05-14T04:06:57;100620.34;;;12.28;75.03
76762;BME280;65705;51.032;13.790;2023-05-14T04:09:23;100617.38;;;12.31;74.63
76762;BME280;65705;51.032;13.790;2023-05-14T04:11:49;100616.09;;;12.35;74.30
76762;BME280;65705;51.032;13.790;2023-05-14T04:14:16;100619.06;;;12.40;74.07
76762;BME280;65705;51.032;13.790;2023-05-14T04:16:42;100604.59;;;12.44;73.88
76762;BME280;65705;51.032;13.790;2023-05-14T04:19:08;100612.13;;;12.31;74.35
76762;BME280;65705;51.032;13.790;2023-05-14T04:21:34;100616.72;;;12.37;74.42
76762;BME280;65705;51.032;13.790;2023-05-14T04:24:00;100619.06;;;12.40;74.51
76762;BME280;65705;51.032;13.790;2023-05-14T04:26:26;100615.78;;;12.46;74.30
76762;BME280;65705;51.032;13.790;2023-05-14T04:28:52;100617.94;;;12.50;74.29
76762;BME280;65705;51.032;13.790;2023-05-14T04:31:17;100611.06;;;12.57;74.19
76762;BME280;65705;51.032;13.790;2023-05-14T04:33:43;100616.69;;;12.62;74.05
76762;BME280;65705;51.032;13.790;2023-05-14T04:36:09;100609.28;;;12.66;73.87
76762;BME280;65705;51.032;13.790;2023-05-14T04:38:34;100607.81;;;12.71;73.69
76762;BME280;65705;51.032;13.790;2023-05-14T04:41:00;100605.06;;;12.81;73.50
76762;BME280;65705;51.032;13.790;2023-05-14T04:43:26;100605.22;;;12.88;72.96
76762;BME280;65705;51.032;13.790;2023-05-14T04:45:52;100599.94;;;12.88;72.75
76762;BME280;65705;51.032;13.790;2023-05-14T04:48:17;100597.66;;;12.93;72.49
76762;BME280;65705;51.032;13.790;2023-05-14T04:50:43;100597.34;;;12.96;72.14
76762;BME280;65705;51.032;13.790;2023-05-14T04:53:09;100595.56;;;13.04;72.00
76762;BME280;65705;51.032;13.790;2023-05-14T04:55:35;100595.56;;;13.12;71.78
76762;BME280;65705;51.032;13.790;2023-05-14T04:58:01;100596.59;;;13.27;71.38
76762;BME280;65705;51.032;13.790;2023-05-14T05:00:28;100593.13;;;13.35;70.78
76762;BME280;65705;51.032;13.790;2023-05-14T05:02:53;100598.56;;;13.41;70.10
76762;BME280;65705;51.032;13.790;2023-05-14T05:05:19;100596.75;;;13.34;70.10
76762;BME280;65705;51.032;13.790;2023-05-14T05:07:45;100587.38;;;13.31;70.12
76762;BME280;65705;51.032;13.790;2023-05-14T05:10:11;100590.81;;;13.40;70.00
76762;BME280;65705;51.032;13.790;2023-05-14T05:12:37;100593.63;;;13.46;69.75
76762;BME280;65705;51.032;13.790;2023-05-14T05:15:03;100600.06;;;13.60;69.60
76762;BME280;65705;51.032;13.790;2023-05-14T05:17:31;100597.22;;;13.69;68.94
76762;BME280;65705;51.032;13.790;2023-05-14T05:19:56;100586.19;;;13.74;68.75
76762;BME280;65705;51.032;13.790;2023-05-14T05:22:22;100589.00;;;13.72;68.79
76762;BME280;65705;51.032;13.790;2023-05-14T05:24:48;100588.97;;;13.81;68.38
76762;BME280;65705;51.032;13.790;2023-05-14T05:27:14;100584.84;;;13.86;68.01
76762;BME280;65705;51.032;13.790;2023-05-14T05:29:40;100585.63;;;13.95;68.05
76762;BME280;65705;51.032;13.790;2023-05-14T05:32:06;100586.28;;;14.05;67.52
76762;BME280;65705;51.032;13.790;2023-05-14T05:34:33;100581.13;;;14.11;67.51
76762;BME280;65705;51.032;13.790;2023-05-14T05:36:59;100587.25;;;14.12;67.24
76762;BME280;65705;51.032;13.790;2023-05-14T05:39:25;100580.16;;;14.12;66.56
76762;BME280;65705;51.032;13.790;2023-05-14T05:41:50;100585.75;;;14.09;66.21
76762;BME280;65705;51.032;13.790;2023-05-14T05:44:16;100579.69;;;14.09;65.97
76762;BME280;65705;51.032;13.790;2023-05-14T05:46:42;100581.66;;;14.07;66.37
76762;BME280;65705;51.032;13.790;2023-05-14T05:49:07;100575.53;;;14.14;66.17
76762;BME280;65705;51.032;13.790;2023-05-14T05:51:33;100575.16;;;14.25;65.94
76762;BME280;65705;51.032;13.790;2023-05-14T05:53:59;100566.88;;;14.36;64.89
76762;BME280;65705;51.032;13.790;2023-05-14T05:56:24;100576.94;;;14.41;64.67
76762;BME280;65705;51.032;13.790;2023-05-14T05:58:50;100572.94;;;14.45;64.52
76762;BME280;65705;51.032;13.790;2023-05-14T06:01:16;100575.44;;;14.46;64.76
76762;BME280;65705;51.032;13.790;2023-05-14T06:03:42;100573.28;;;14.50;64.56
76762;BME280;65705;51.032;13.790;2023-05-14T06:06:07;100571.59;;;14.57;64.40
76762;BME280;65705;51.032;13.790;2023-05-14T06:08:33;100563.59;;;14.65;64.14
76762;BME280;65705;51.032;13.790;2023-05-14T06:10:59;100575.41;;;14.77;63.79
76762;BME280;65705;51.032;13.790;2023-05-14T06:13:24;100572.25;;;14.82;63.54
76762;BME280;65705;51.032;13.790;2023-05-14T06:15:50;100574.44;;;14.78;63.30
76762;BME280;65705;51.032;13.790;2023-05-14T06:18:16;100570.75;;;14.87;63.36
76762;BME280;65705;51.032;13.790;2023-05-14T06:20:42;100575.16;;;14.95;63.03
76762;BME280;65705;51.032;13.790;2023-05-14T06:23:07;100573.28;;;15.03;62.99
76762;BME280;65705;51.032;13.790;2023-05-14T06:25:33;100573.94;;;15.05;62.76
76762;BME280;65705;51.032;13.790;2023-05-14T06:27:59;100569.94;;;15.09;62.73
76762;BME280;65705;51.032;13.790;2023-05-14T06:30:25;100566.56;;;15.15;62.55
76762;BME280;65705;51.032;13.790;2023-05-14T06:32:50;100563.88;;;15.23;62.56
76762;BME280;65705;51.032;13.790;2023-05-14T06:35:17;100563.34;;;15.28;62.64
76762;BME280;65705;51.032;13.790;2023-05-14T06:37:44;100571.41;;;15.34;62.57
76762;BME280;65705;51.032;13.790;2023-05-14T06:40:10;100565.41;;;15.40;61.70
76762;BME280;65705;51.032;13.790;2023-05-14T06:42:36;100568.50;;;15.44;61.91
76762;BME280;65705;51.032;13.790;2023-05-14T06:45:04;100566.78;;;15.51;61.37
76762;BME280;65705;51.032;13.790;2023-05-14T06:47:30;100558.53;;;15.54;61.37
76762;BME280;65705;51.032;13.790;2023-05-14T06:49:56;100554.50;;;15.58;61.04
76762;BME280;65705;51.032;13.790;2023-05-14T06:52:23;100564.38;;;15.64;60.89
76762;BME280;65705;51.032;13.790;2023-05-14T06:54:49;100546.75;;;15.71;61.00
76762;BME280;65705;51.032;13.790;2023-05-14T06:57:15;100551.16;;;15.78;60.73
76762;BME280;65705;51.032;13.790;2023-05-14T06:59:41;100552.91;;;15.86;60.74
76762;BME280;65705;51.032;13.790;2023-05-14T07:02:07;100554.16;;;15.90;61.26
76762;BME280;65705;51.032;13.790;2023-05-14T07:04:32;100551.63;;;15.97;61.10
76762;BME280;65705;51.032;13.790;2023-05-14T07:06:59;100546.22;;;16.05;60.43
76762;BME280;65705;51.032;13.790;2023-05-14T07:09:24;100539.81;;;16.14;60.14
76762;BME280;65705;51.032;13.790;2023-05-14T07:11:50;100539.38;;;16.25;60.38
76762;BME280;65705;51.032;13.790;2023-05-14T07:14:16;100535.88;;;16.39;60.23
76762;BME280;65705;51.032;13.790;2023-05-14T07:16:41;100534.06;;;16.54;58.15
76762;BME280;65705;51.032;13.790;2023-05-14T07:19:07;100533.91;;;16.62;58.25
76762;BME280;65705;51.032;13.790;2023-05-14T07:21:34;100533.81;;;16.70;57.54
76762;BME280;65705;51.032;13.790;2023-05-14T07:24:00;100534.91;;;16.75;57.84
76762;BME280;65705;51.032;13.790;2023-05-14T07:26:25;100530.28;;;16.84;57.92
76762;BME280;65705;51.032;13.790;2023-05-14T07:28:51;100528.91;;;16.88;57.73
76762;BME280;65705;51.032;13.790;2023-05-14T07:31:17;100533.09;;;16.97;57.01
76762;BME280;65705;51.032;13.790;2023-05-14T07:33:43;100522.13;;;17.07;56.46
76762;BME280;65705;51.032;13.790;2023-05-14T07:36:08;100526.06;;;17.11;56.56
76762;BME280;65705;51.032;13.790;2023-05-14T07:38:34;100523.72;;;17.22;56.05
76762;BME280;65705;51.032;13.790;2023-05-14T07:41:00;100529.13;;;17.35;55.41
76762;BME280;65705;51.032;13.790;2023-05-14T07:43:25;100523.63;;;17.37;55.55
76762;BME280;65705;51.032;13.790;2023-05-14T07:45:51;100517.94;;;17.40;55.78
76762;BME280;65705;51.032;13.790;2023-05-14T07:48:17;100509.38;;;17.44;56.09
76762;BME280;65705;51.032;13.790;2023-05-14T07:50:43;100515.00;;;17.49;55.91
76762;BME280;65705;51.032;13.790;2023-05-14T07:53:09;100506.63;;;17.52;55.28
76762;BME280;65705;51.032;13.790;2023-05-14T07:55:35;100509.72;;;17.56;55.60
76762;BME280;65705;51.032;13.790;2023-05-14T07:58:01;100504.41;;;17.56;55.71
76762;BME280;65705;51.032;13.790;2023-05-14T08:00:27;100500.13;;;17.55;55.49
76762;BME280;65705;51.032;13.790;2023-05-14T08:02:54;100509.72;;;17.56;54.89
76762;BME280;65705;51.032;13.790;2023-05-14T08:05:20;100509.28;;;17.52;54.73
76762;BME280;65705;51.032;13.790;2023-05-14T08:07:46;100504.16;;;17.51;55.12
76762;BME280;65705;51.032;13.790;2023-05-14T08:10:11;100504.38;;;17.49;54.75
76762;BME280;65705;51.032;13.790;2023-05-14T08:12:37;100506.44;;;17.54;54.29
76762;BME280;65705;51.032;13.790;2023-05-14T08:15:04;100505.66;;;17.60;54.16
76762;BME280;65705;51.032;13.790;2023-05-14T08:17:32;100505.69;;;17.66;54.66
76762;BME280;65705;51.032;13.790;2023-05-14T08:19:58;100503.47;;;17.70;54.19
76762;BME280;65705;51.032;13.790;2023-05-14T08:22:23;100506.13;;;17.70;54.41
76762;BME280;65705;51.032;13.790;2023-05-14T08:24:49;100497.94;;;17.65;54.32
76762;BME280;65705;51.032;13.790;2023-05-14T08:27:15;100497.84;;;17.52;54.27
76762;BME280;65705;51.032;13.790;2023-05-14T08:29:41;100497.78;;;17.45;54.09
76762;BME280;65705;51.032;13.790;2023-05-14T08:32:07;100502.84;;;17.40;54.32
76762;BME280;65705;51.032;13.790;2023-05-14T08:34:33;100494.50;;;17.43;54.40
76762;BME280;65705;51.032;13.790;2023-05-14T08:37:00;100499.41;;;17.46;55.08
76762;BME280;65705;51.032;13.790;2023-05-14T08:39:26;100492.31;;;17.53;55.33
76762;BME280;65705;51.032;13.790;2023-05-14T08:41:52;100492.16;;;17.55;54.64
76762;BME280;65705;51.032;13.790;2023-05-14T08:44:19;100497.09;;;17.64;54.90
76762;BME280;65705;51.032;13.790;2023-05-14T08:46:47;100499.63;;;17.72;55.08
76762;BME280;65705;51.032;13.790;2023-05-14T08:52:00;100496.44;;;17.90;55.82
76762;BME280;65705;51.032;13.790;2023-05-14T08:54:26;100495.84;;;17.95;54.85
76762;BME280;65705;51.032;13.790;2023-05-14T08:56:53;100493.66;;;18.05;54.21
76762;BME280;65705;51.032;13.790;2023-05-14T08:59:19;100500.59;;;18.06;53.69
76762;BME280;65705;51.032;13.790;2023-05-14T09:01:51;100485.22;;;17.95;53.00
76762;BME280;65705;51.032;13.790;2023-05-14T09:04:22;100491.34;;;17.95;52.47
76762;BME280;65705;51.032;13.790;2023-05-14T09:06:52;100490.78;;;18.00;52.14
76762;BME280;65705;51.032;13.790;2023-05-14T09:09:18;100485.91;;;18.10;51.87
76762;BME280;65705;51.032;13.790;2023-05-14T09:11:48;100485.13;;;18.16;50.69
76762;BME280;65705;51.032;13.790;2023-05-14T09:14:14;100490.47;;;18.22;49.84
76762;BME280;65705;51.032;13.790;2023-05-14T09:16:43;100482.34;;;18.37;49.79
76762;BME280;65705;51.032;13.790;2023-05-14T09:19:11;100485.28;;;18.61;50.44
76762;BME280;65705;51.032;13.790;2023-05-14T09:21:37;100467.31;;;18.83;49.07
76762;BME280;65705;51.032;13.790;2023-05-14T09:24:03;100473.69;;;19.08;49.38
76762;BME280;65705;51.032;13.790;2023-05-14T09:26:31;100463.25;;;19.33;49.40
76762;BME280;65705;51.032;13.790;2023-05-14T09:28:57;100468.16;;;19.55;49.58
76762;BME280;65705;51.032;13.790;2023-05-14T09:31:28;100458.09;;;19.64;47.96
76762;BME280;65705;51.032;13.790;2023-05-14T09:33:54;100454.19;;;19.60;48.79
76762;BME280;65705;51.032;13.790;2023-05-14T09:36:19;100456.69;;;19.48;48.31
76762;BME280;65705;51.032;13.790;2023-05-14T09:38:45;100454.22;;;19.53;48.90
76762;BME280;65705;51.032;13.790;2023-05-14T09:41:11;100450.47;;;19.74;48.28
76762;BME280;65705;51.032;13.790;2023-05-14T09:43:37;100451.44;;;19.92;47.83
76762;BME280;65705;51.032;13.790;2023-05-14T09:46:03;100443.19;;;20.01;47.01
76762;BME280;65705;51.032;13.790;2023-05-14T09:48:29;100450.59;;;19.99;46.38
76762;BME280;65705;51.032;13.790;2023-05-14T09:50:54;100438.97;;;19.80;47.03
76762;BME280;65705;51.032;13.790;2023-05-14T09:53:20;100435.72;;;19.71;47.37
76762;BME280;65705;51.032;13.790;2023-05-14T09:55:46;100426.09;;;19.77;47.11
76762;BME280;65705;51.032;13.790;2023-05-14T09:58:11;100426.47;;;19.80;47.11
76762;BME280;65705;51.032;13.790;2023-05-14T10:00:45;100422.34;;;19.91;47.29
76762;BME280;65705;51.032;13.790;2023-05-14T10:03:13;100419.81;;;20.03;46.95
76762;BME280;65705;51.032;13.790;2023-05-14T10:05:41;100415.25;;;20.16;46.27
76762;BME280;65705;51.032;13.790;2023-05-14T10:08:29;100417.47;;;20.26;46.48
76762;BME280;65705;51.032;13.790;2023-05-14T10:10:58;100416.66;;;20.25;45.39
76762;BME280;65705;51.032;13.790;2023-05-14T10:13:32;100406.81;;;20.26;45.47
76762;BME280;65705;51.032;13.790;2023-05-14T10:18:39;100407.41;;;20.28;45.65
76762;BME280;65705;51.032;13.790;2023-05-14T10:21:06;100403.75;;;20.22;45.65
76762;BME280;65705;51.032;13.790;2023-05-14T10:23:33;100408.72;;;20.12;45.73
76762;BME280;65705;51.032;13.790;2023-05-14T10:26:03;100402.81;;;20.04;45.58
76762;BME280;65705;51.032;13.790;2023-05-14T10:28:30;100403.69;;;19.84;46.98
76762;BME280;65705;51.032;13.790;2023-05-14T10:30:56;100396.41;;;19.73;47.24
76762;BME280;65705;51.032;13.790;2023-05-14T10:33:23;100397.63;;;19.71;47.27
76762;BME280;65705;51.032;13.790;2023-05-14T10:35:56;100399.22;;;19.78;47.22
76762;BME280;65705;51.032;13.790;2023-05-14T10:38:36;100404.53;;;19.85;46.63
76762;BME280;65705;51.032;13.790;2023-05-14T10:41:09;100402.72;;;19.72;46.67
76762;BME280;65705;51.032;13.790;2023-05-14T10:43:37;100405.00;;;19.69;46.92
76762;BME280;65705;51.032;13.790;2023-05-14T10:46:03;100394.94;;;19.71;46.19
76762;BME280;65705;51.032;13.790;2023-05-14T10:48:30;100400.84;;;19.79;46.36
76762;BME280;65705;51.032;13.790;2023-05-14T10:50:56;100389.63;;;19.71;46.36
76762;BME280;65705;51.032;13.790;2023-05-14T10:53:32;100393.38;;;19.57;45.94
76762;BME280;65705;51.032;13.790;2023-05-14T10:56:06;100394.63;;;19.48;46.43
76762;BME280;65705;51.032;13.790;2023-05-14T10:58:36;100385.84;;;19.34;46.96
76762;BME280;65705;51.032;13.790;2023-05-14T11:01:03;100377.88;;;19.21;47.64
76762;BME280;65705;51.032;13.790;2023-05-14T11:03:31;100380.53;;;19.15;47.58
76762;BME280;65705;51.032;13.790;2023-05-14T11:06:03;100378.13;;;19.00;47.69
76762;BME280;65705;51.032;13.790;2023-05-14T11:08:31;100381.81;;;18.92;47.75
76762;BME280;65705;51.032;13.790;2023-05-14T11:10:57;100372.38;;;18.97;48.12
76762;BME280;65705;51.032;13.790;2023-05-14T11:13:25;100365.63;;;19.01;48.33
76762;BME280;65705;51.032;13.790;2023-05-14T11:15:51;100364.81;;;19.00;47.51
76762;BME280;65705;51.032;13.790;2023-05-14T11:18:31;100364.16;;;19.11;47.93
76762;BME280;65705;51.032;13.790;2023-05-14T11:21:06;100368.66;;;19.17;47.52
76762;BME280;65705;51.032;13.790;2023-05-14T11:23:31;100358.41;;;19.21;47.81
76762;BME280;65705;51.032;13.790;2023-05-14T11:25:57;100358.63;;;19.32;47.69
76762;BME280;65705;51.032;13.790;2023-05-14T11:28:24;100355.50;;;19.48;46.68
76762;BME280;65705;51.032;13.790;2023-05-14T11:30:52;100356.63;;;19.72;46.65
76762;BME280;65705;51.032;13.790;2023-05-14T11:33:19;100350.63;;;19.89;45.89
76762;BME280;65705;51.032;13.790;2023-05-14T11:35:45;100342.53;;;20.03;45.43
76762;BME280;65705;51.032;13.790;2023-05-14T11:38:16;100343.47;;;20.21;44.80
76762;BME280;65705;51.032;13.790;2023-05-14T11:40:49;100341.16;;;20.31;44.15
76762;BME280;65705;51.032;13.790;2023-05-14T11:43:16;100333.06;;;20.44;43.80
76762;BME280;65705;51.032;13.790;2023-05-14T11:45:42;100336.56;;;20.45;44.08
76762;BME280;65705;51.032;13.790;2023-05-14T11:48:11;100330.31;;;20.51;43.81
76762;BME280;65705;51.032;13.790;2023-05-14T11:50:39;100332.13;;;20.57;43.63
76762;BME280;65705;51.032;13.790;2023-05-14T11:53:05;100326.25;;;20.73;42.80
76762;BME280;65705;51.032;13.790;2023-05-14T11:55:33;100327.97;;;20.85;42.92
76762;BME280;65705;51.032;13.790;2023-05-14T11:58:00;100330.75;;;20.97;43.04
76762;BME280;65705;51.032;13.790;2023-05-14T12:00:26;100322.09;;;21.02;42.37
76762;BME280;65705;51.032;13.790;2023-05-14T12:02:53;100322.03;;;21.08;42.47
76762;BME280;65705;51.032;13.790;2023-05-14T12:05:19;100315.72;;;21.21;41.96
76762;BME280;65705;51.032;13.790;2023-05-14T12:07:45;100311.66;;;21.18;41.96
76762;BME280;65705;51.032;13.790;2023-05-14T12:10:11;100312.63;;;21.06;42.11
76762;BME280;65705;51.032;13.790;2023-05-14T12:12:38;100311.34;;;21.08;42.27
76762;BME280;65705;51.032;13.790;2023-05-14T12:15:11;100303.06;;;21.16;42.08
76762;BME280;65705;51.032;13.790;2023-05-14T12:17:38;100305.34;;;21.31;41.55
76762;BME280;65705;51.032;13.790;2023-05-14T12:20:07;100309.03;;;21.48;41.84
76762;BME280;65705;51.032;13.790;2023-05-14T12:22:34;100304.03;;;21.69;40.81
76762;BME280;65705;51.032;13.790;2023-05-14T12:25:00;100298.44;;;21.71;39.51
76762;BME280;65705;51.032;13.790;2023-05-14T12:27:27;100293.88;;;21.78;38.97
76762;BME280;65705;51.032;13.790;2023-05-14T12:30:01;100298.31;;;21.84;39.79
76762;BME280;65705;51.032;13.790;2023-05-14T12:32:30;100299.78;;;21.80;37.89
76762;BME280;65705;51.032;13.790;2023-05-14T12:34:56;100294.50;;;21.91;38.48
76762;BME280;65705;51.032;13.790;2023-05-14T12:37:21;100280.97;;;22.05;38.27
76762;BME280;65705;51.032;13.790;2023-05-14T12:39:47;100275.97;;;22.20;38.00
76762;BME280;65705;51.032;13.790;2023-05-14T12:42:18;100271.56;;;22.25;38.00
76762;BME280;65705;51.032;13.790;2023-05-14T12:44:44;100277.03;;;22.19;38.00